Terminal Aerodrome Forecast
Issued by NWS

Home | Current Version | Previous Version | Text Only | Print | Product List | Glossary On
Versions: 1 2 3 4 5 6 7 8 9 10 11 12 13 14 15 16 17 18 19 20 21
000
FTUS41 KBGM 202300
TAFITH
TAF
KITH 202338Z 2100/2124 11006KT 5SM BR OVC035
      TEMPO 2100/2102 3SM -SHRA BR BKN025
     FM210300 15004KT 3SM BR BKN025 OVC040
      TEMPO 2104/2106 2SM BR BKN008 OVC030
     FM210600 15004KT 2SM BR OVC007
     FM211400 20004KT 3SM BR SCT007 OVC015
     FM211800 22005KT P6SM -SHRA SCT025 OVC040=

USA.gov is the U.S. government's official web portal to all federal, state and local government web resources and services.